sensor_id;sensor_type;location;lat;lon;timestamp;P1;durP1;ratioP1;P2;durP2;ratioP2
12760;SDS011;6444;49.742;6.114;2023-09-18T00:00:46;14.57;;;9.75;;
12760;SDS011;6444;49.742;6.114;2023-09-18T00:03:12;16.15;;;11.30;;
12760;SDS011;6444;49.742;6.114;2023-09-18T00:05:39;14.80;;;9.90;;
12760;SDS011;6444;49.742;6.114;2023-09-18T00:08:06;18.73;;;10.70;;
12760;SDS011;6444;49.742;6.114;2023-09-18T00:10:33;16.15;;;10.70;;
12760;SDS011;6444;49.742;6.114;2023-09-18T00:13:00;14.00;;;10.07;;
12760;SDS011;6444;49.742;6.114;2023-09-18T00:15:26;14.25;;;9.80;;
12760;SDS011;6444;49.742;6.114;2023-09-18T00:17:53;15.38;;;10.23;;
12760;SDS011;6444;49.742;6.114;2023-09-18T00:20:20;16.73;;;10.60;;
12760;SDS011;6444;49.742;6.114;2023-09-18T00:22:46;18.73;;;11.12;;
12760;SDS011;6444;49.742;6.114;2023-09-18T00:25:13;18.95;;;12.35;;
12760;SDS011;6444;49.742;6.114;2023-09-18T00:27:40;19.12;;;12.07;;
12760;SDS011;6444;49.742;6.114;2023-09-18T00:30:06;19.27;;;12.05;;
12760;SDS011;6444;49.742;6.114;2023-09-18T00:32:33;21.65;;;12.60;;
12760;SDS011;6444;49.742;6.114;2023-09-18T00:35:00;20.95;;;11.68;;
12760;SDS011;6444;49.742;6.114;2023-09-18T00:37:26;20.73;;;12.63;;
12760;SDS011;6444;49.742;6.114;2023-09-18T00:39:53;26.10;;;14.60;;
12760;SDS011;6444;49.742;6.114;2023-09-18T00:42:19;17.70;;;10.38;;
12760;SDS011;6444;49.742;6.114;2023-09-18T00:44:46;18.10;;;8.50;;
12760;SDS011;6444;49.742;6.114;2023-09-18T00:47:13;18.65;;;9.23;;
12760;SDS011;6444;49.742;6.114;2023-09-18T00:49:40;17.85;;;7.72;;
12760;SDS011;6444;49.742;6.114;2023-09-18T00:52:06;21.52;;;8.45;;
12760;SDS011;6444;49.742;6.114;2023-09-18T00:54:33;21.58;;;8.27;;
12760;SDS011;6444;49.742;6.114;2023-09-18T00:57:00;16.58;;;7.50;;
12760;SDS011;6444;49.742;6.114;2023-09-18T00:59:27;17.87;;;7.35;;
12760;SDS011;6444;49.742;6.114;2023-09-18T01:01:53;10.80;;;6.03;;
12760;SDS011;6444;49.742;6.114;2023-09-18T01:04:20;14.43;;;6.60;;
12760;SDS011;6444;49.742;6.114;2023-09-18T01:06:46;13.70;;;6.65;;
12760;SDS011;6444;49.742;6.114;2023-09-18T01:09:13;18.15;;;7.62;;
12760;SDS011;6444;49.742;6.114;2023-09-18T01:14:25;16.98;;;6.93;;
12760;SDS011;6444;49.742;6.114;2023-09-18T01:16:53;15.63;;;7.12;;
12760;SDS011;6444;49.742;6.114;2023-09-18T01:19:17;12.27;;;7.03;;
12760;SDS011;6444;49.742;6.114;2023-09-18T01:21:45;20.77;;;9.90;;
12760;SDS011;6444;49.742;6.114;2023-09-18T01:24:11;17.17;;;9.57;;
12760;SDS011;6444;49.742;6.114;2023-09-18T01:26:37;17.50;;;7.80;;
12760;SDS011;6444;49.742;6.114;2023-09-18T01:29:04;23.83;;;8.75;;
12760;SDS011;6444;49.742;6.114;2023-09-18T01:31:30;14.85;;;8.10;;
12760;SDS011;6444;49.742;6.114;2023-09-18T01:33:57;15.90;;;8.27;;
12760;SDS011;6444;49.742;6.114;2023-09-18T01:36:24;18.90;;;8.43;;
12760;SDS011;6444;49.742;6.114;2023-09-18T01:38:51;16.77;;;8.07;;
12760;SDS011;6444;49.742;6.114;2023-09-18T01:41:18;17.65;;;8.13;;
12760;SDS011;6444;49.742;6.114;2023-09-18T01:43:44;24.48;;;7.60;;
12760;SDS011;6444;49.742;6.114;2023-09-18T01:46:11;17.67;;;7.72;;
12760;SDS011;6444;49.742;6.114;2023-09-18T01:48:38;23.87;;;7.57;;
12760;SDS011;6444;49.742;6.114;2023-09-18T01:51:04;16.55;;;8.45;;
12760;SDS011;6444;49.742;6.114;2023-09-18T01:53:31;19.20;;;7.07;;
12760;SDS011;6444;49.742;6.114;2023-09-18T01:55:57;13.50;;;7.72;;
12760;SDS011;6444;49.742;6.114;2023-09-18T01:58:24;15.25;;;7.70;;
12760;SDS011;6444;49.742;6.114;2023-09-18T02:00:51;16.23;;;7.82;;
12760;SDS011;6444;49.742;6.114;2023-09-18T02:03:17;18.35;;;8.45;;
12760;SDS011;6444;49.742;6.114;2023-09-18T02:05:44;19.23;;;8.10;;
12760;SDS011;6444;49.742;6.114;2023-09-18T02:08:11;16.20;;;7.22;;
12760;SDS011;6444;49.742;6.114;2023-09-18T02:10:37;15.95;;;7.65;;
12760;SDS011;6444;49.742;6.114;2023-09-18T02:13:04;17.83;;;7.62;;
12760;SDS011;6444;49.742;6.114;2023-09-18T02:15:30;16.30;;;7.80;;
12760;SDS011;6444;49.742;6.114;2023-09-18T02:17:57;15.02;;;7.65;;
12760;SDS011;6444;49.742;6.114;2023-09-18T02:20:24;25.33;;;8.90;;
12760;SDS011;6444;49.742;6.114;2023-09-18T02:22:50;20.33;;;8.73;;
12760;SDS011;6444;49.742;6.114;2023-09-18T02:25:17;21.37;;;10.50;;
12760;SDS011;6444;49.742;6.114;2023-09-18T02:27:44;19.98;;;10.65;;
12760;SDS011;6444;49.742;6.114;2023-09-18T02:30:10;17.45;;;10.27;;
12760;SDS011;6444;49.742;6.114;2023-09-18T02:32:37;18.17;;;8.55;;
12760;SDS011;6444;49.742;6.114;2023-09-18T02:35:04;16.08;;;8.35;;
12760;SDS011;6444;49.742;6.114;2023-09-18T02:37:30;17.35;;;8.65;;
12760;SDS011;6444;49.742;6.114;2023-09-18T02:39:57;16.55;;;7.95;;
12760;SDS011;6444;49.742;6.114;2023-09-18T02:42:23;17.70;;;7.78;;
12760;SDS011;6444;49.742;6.114;2023-09-18T02:44:50;17.40;;;8.20;;
12760;SDS011;6444;49.742;6.114;2023-09-18T02:47:17;19.60;;;9.18;;
12760;SDS011;6444;49.742;6.114;2023-09-18T02:49:44;15.18;;;7.72;;
12760;SDS011;6444;49.742;6.114;2023-09-18T02:52:11;15.38;;;8.02;;
12760;SDS011;6444;49.742;6.114;2023-09-18T02:54:37;15.80;;;8.52;;
12760;SDS011;6444;49.742;6.114;2023-09-18T02:57:04;20.35;;;8.25;;
12760;SDS011;6444;49.742;6.114;2023-09-18T02:59:31;19.45;;;8.00;;
12760;SDS011;6444;49.742;6.114;2023-09-18T03:01:57;21.48;;;8.48;;
12760;SDS011;6444;49.742;6.114;2023-09-18T03:04:24;21.85;;;8.38;;
12760;SDS011;6444;49.742;6.114;2023-09-18T03:06:50;17.25;;;7.28;;
12760;SDS011;6444;49.742;6.114;2023-09-18T03:09:17;15.35;;;6.75;;
12760;SDS011;6444;49.742;6.114;2023-09-18T03:11:44;17.90;;;6.82;;
12760;SDS011;6444;49.742;6.114;2023-09-18T03:14:10;15.48;;;6.50;;
12760;SDS011;6444;49.742;6.114;2023-09-18T03:16:37;16.25;;;6.75;;
12760;SDS011;6444;49.742;6.114;2023-09-18T03:19:04;17.95;;;8.27;;
12760;SDS011;6444;49.742;6.114;2023-09-18T03:21:30;20.48;;;8.75;;
12760;SDS011;6444;49.742;6.114;2023-09-18T03:23:57;15.35;;;7.65;;
12760;SDS011;6444;49.742;6.114;2023-09-18T03:26:24;18.83;;;8.90;;
12760;SDS011;6444;49.742;6.114;2023-09-18T03:28:50;16.60;;;8.52;;
12760;SDS011;6444;49.742;6.114;2023-09-18T03:31:17;20.50;;;10.43;;
12760;SDS011;6444;49.742;6.114;2023-09-18T03:33:43;22.08;;;9.25;;
12760;SDS011;6444;49.742;6.114;2023-09-18T03:36:10;15.57;;;8.05;;
12760;SDS011;6444;49.742;6.114;2023-09-18T03:38:37;21.02;;;9.82;;
12760;SDS011;6444;49.742;6.114;2023-09-18T03:41:03;20.55;;;10.73;;
12760;SDS011;6444;49.742;6.114;2023-09-18T03:43:30;18.52;;;8.93;;
12760;SDS011;6444;49.742;6.114;2023-09-18T03:46:03;20.25;;;8.57;;
12760;SDS011;6444;49.742;6.114;2023-09-18T03:48:29;21.35;;;8.30;;
12760;SDS011;6444;49.742;6.114;2023-09-18T03:50:56;22.30;;;8.90;;
12760;SDS011;6444;49.742;6.114;2023-09-18T03:53:23;14.02;;;6.45;;
12760;SDS011;6444;49.742;6.114;2023-09-18T03:55:50;18.60;;;7.90;;
12760;SDS011;6444;49.742;6.114;2023-09-18T03:58:17;21.65;;;9.30;;
12760;SDS011;6444;49.742;6.114;2023-09-18T04:00:43;18.08;;;9.23;;
12760;SDS011;6444;49.742;6.114;2023-09-18T04:03:10;18.33;;;8.38;;
12760;SDS011;6444;49.742;6.114;2023-09-18T04:05:36;18.00;;;8.25;;
12760;SDS011;6444;49.742;6.114;2023-09-18T04:08:04;21.08;;;9.50;;
12760;SDS011;6444;49.742;6.114;2023-09-18T04:10:31;19.05;;;9.27;;
12760;SDS011;6444;49.742;6.114;2023-09-18T04:12:57;19.60;;;8.82;;
12760;SDS011;6444;49.742;6.114;2023-09-18T04:15:24;20.30;;;9.13;;
12760;SDS011;6444;49.742;6.114;2023-09-18T04:17:50;17.65;;;8.55;;
12760;SDS011;6444;49.742;6.114;2023-09-18T04:20:17;15.70;;;7.35;;
12760;SDS011;6444;49.742;6.114;2023-09-18T04:22:44;16.03;;;9.07;;
12760;SDS011;6444;49.742;6.114;2023-09-18T04:25:11;19.15;;;8.98;;
12760;SDS011;6444;49.742;6.114;2023-09-18T04:27:37;16.10;;;6.80;;
12760;SDS011;6444;49.742;6.114;2023-09-18T04:30:04;13.05;;;5.37;;
12760;SDS011;6444;49.742;6.114;2023-09-18T04:32:30;14.90;;;6.03;;
12760;SDS011;6444;49.742;6.114;2023-09-18T04:34:57;14.35;;;5.80;;
12760;SDS011;6444;49.742;6.114;2023-09-18T04:37:23;9.52;;;4.72;;
12760;SDS011;6444;49.742;6.114;2023-09-18T04:39:50;14.38;;;5.53;;
12760;SDS011;6444;49.742;6.114;2023-09-18T04:42:17;10.52;;;5.87;;
12760;SDS011;6444;49.742;6.114;2023-09-18T04:44:43;13.55;;;7.20;;
12760;SDS011;6444;49.742;6.114;2023-09-18T04:47:10;10.68;;;6.85;;
12760;SDS011;6444;49.742;6.114;2023-09-18T04:49:37;11.40;;;5.40;;
12760;SDS011;6444;49.742;6.114;2023-09-18T04:52:03;11.75;;;4.70;;
12760;SDS011;6444;49.742;6.114;2023-09-18T04:54:30;11.40;;;7.32;;
12760;SDS011;6444;49.742;6.114;2023-09-18T04:56:57;10.80;;;5.32;;
12760;SDS011;6444;49.742;6.114;2023-09-18T04:59:23;9.80;;;5.15;;
12760;SDS011;6444;49.742;6.114;2023-09-18T05:01:50;8.77;;;5.10;;
12760;SDS011;6444;49.742;6.114;2023-09-18T05:04:17;13.02;;;6.32;;
12760;SDS011;6444;49.742;6.114;2023-09-18T05:06:44;10.95;;;5.22;;
12760;SDS011;6444;49.742;6.114;2023-09-18T05:09:10;12.20;;;5.53;;
12760;SDS011;6444;49.742;6.114;2023-09-18T05:11:37;10.98;;;6.15;;
12760;SDS011;6444;49.742;6.114;2023-09-18T05:14:04;11.50;;;5.60;;
12760;SDS011;6444;49.742;6.114;2023-09-18T05:16:30;10.52;;;4.22;;
12760;SDS011;6444;49.742;6.114;2023-09-18T05:18:57;9.18;;;4.82;;
12760;SDS011;6444;49.742;6.114;2023-09-18T05:21:24;10.07;;;4.00;;
12760;SDS011;6444;49.742;6.114;2023-09-18T05:23:50;10.63;;;4.43;;
12760;SDS011;6444;49.742;6.114;2023-09-18T05:26:17;6.90;;;3.87;;
12760;SDS011;6444;49.742;6.114;2023-09-18T05:28:43;7.03;;;3.40;;
12760;SDS011;6444;49.742;6.114;2023-09-18T05:31:10;10.07;;;3.42;;
12760;SDS011;6444;49.742;6.114;2023-09-18T05:33:37;5.40;;;3.05;;
12760;SDS011;6444;49.742;6.114;2023-09-18T05:36:03;6.05;;;3.12;;
12760;SDS011;6444;49.742;6.114;2023-09-18T05:38:31;9.70;;;3.53;;
12760;SDS011;6444;49.742;6.114;2023-09-18T05:40:57;6.12;;;3.60;;
12760;SDS011;6444;49.742;6.114;2023-09-18T05:43:24;7.78;;;3.40;;
12760;SDS011;6444;49.742;6.114;2023-09-18T05:45:51;6.43;;;3.10;;
12760;SDS011;6444;49.742;6.114;2023-09-18T05:48:18;8.50;;;3.58;;
12760;SDS011;6444;49.742;6.114;2023-09-18T05:50:45;8.40;;;3.22;;
12760;SDS011;6444;49.742;6.114;2023-09-18T05:53:11;7.68;;;2.70;;
12760;SDS011;6444;49.742;6.114;2023-09-18T05:55:38;6.80;;;2.80;;
12760;SDS011;6444;49.742;6.114;2023-09-18T05:58:05;7.43;;;3.35;;
12760;SDS011;6444;49.742;6.114;2023-09-18T06:00:32;7.70;;;3.25;;
12760;SDS011;6444;49.742;6.114;2023-09-18T06:02:59;6.35;;;2.95;;
12760;SDS011;6444;49.742;6.114;2023-09-18T06:05:25;5.95;;;3.33;;
12760;SDS011;6444;49.742;6.114;2023-09-18T06:07:53;4.78;;;2.58;;
12760;SDS011;6444;49.742;6.114;2023-09-18T06:10:19;4.80;;;2.40;;
12760;SDS011;6444;49.742;6.114;2023-09-18T06:12:46;4.03;;;2.30;;
12760;SDS011;6444;49.742;6.114;2023-09-18T06:15:13;3.90;;;2.50;;
12760;SDS011;6444;49.742;6.114;2023-09-18T06:17:40;2.95;;;2.08;;
12760;SDS011;6444;49.742;6.114;2023-09-18T06:20:07;3.97;;;2.40;;
12760;SDS011;6444;49.742;6.114;2023-09-18T06:22:36;5.15;;;2.20;;
12760;SDS011;6444;49.742;6.114;2023-09-18T06:25:03;5.25;;;2.55;;
12760;SDS011;6444;49.742;6.114;2023-09-18T06:27:29;5.22;;;1.80;;
12760;SDS011;6444;49.742;6.114;2023-09-18T06:29:56;3.92;;;2.15;;
12760;SDS011;6444;49.742;6.114;2023-09-18T06:34:59;3.10;;;2.20;;
12760;SDS011;6444;49.742;6.114;2023-09-18T06:37:25;7.27;;;2.40;;
12760;SDS011;6444;49.742;6.114;2023-09-18T06:39:52;5.03;;;1.80;;
12760;SDS011;6444;49.742;6.114;2023-09-18T06:42:18;4.60;;;1.92;;
12760;SDS011;6444;49.742;6.114;2023-09-18T06:44:45;4.07;;;1.65;;
12760;SDS011;6444;49.742;6.114;2023-09-18T06:47:11;4.87;;;1.83;;
12760;SDS011;6444;49.742;6.114;2023-09-18T06:49:39;4.90;;;1.95;;
12760;SDS011;6444;49.742;6.114;2023-09-18T06:52:05;3.72;;;1.75;;
12760;SDS011;6444;49.742;6.114;2023-09-18T06:54:32;3.33;;;1.50;;
12760;SDS011;6444;49.742;6.114;2023-09-18T06:56:59;3.08;;;1.80;;
12760;SDS011;6444;49.742;6.114;2023-09-18T06:59:25;3.67;;;1.90;;
12760;SDS011;6444;49.742;6.114;2023-09-18T07:01:53;4.90;;;1.87;;
12760;SDS011;6444;49.742;6.114;2023-09-18T07:04:19;6.28;;;1.85;;
12760;SDS011;6444;49.742;6.114;2023-09-18T07:06:46;3.75;;;1.90;;
12760;SDS011;6444;49.742;6.114;2023-09-18T07:09:13;8.25;;;1.70;;
12760;SDS011;6444;49.742;6.114;2023-09-18T07:11:39;3.97;;;1.70;;
12760;SDS011;6444;49.742;6.114;2023-09-18T07:14:06;4.70;;;1.90;;
12760;SDS011;6444;49.742;6.114;2023-09-18T07:16:33;3.35;;;2.05;;
12760;SDS011;6444;49.742;6.114;2023-09-18T07:18:59;2.95;;;1.40;;
12760;SDS011;6444;49.742;6.114;2023-09-18T07:21:26;4.40;;;1.80;;
12760;SDS011;6444;49.742;6.114;2023-09-18T07:23:52;4.90;;;2.17;;
12760;SDS011;6444;49.742;6.114;2023-09-18T07:26:19;4.17;;;1.87;;
12760;SDS011;6444;49.742;6.114;2023-09-18T07:28:46;4.72;;;1.95;;
12760;SDS011;6444;49.742;6.114;2023-09-18T07:31:12;3.50;;;1.85;;
12760;SDS011;6444;49.742;6.114;2023-09-18T07:33:39;2.92;;;2.10;;
12760;SDS011;6444;49.742;6.114;2023-09-18T07:36:06;3.05;;;1.58;;
12760;SDS011;6444;49.742;6.114;2023-09-18T07:38:32;5.78;;;1.83;;
12760;SDS011;6444;49.742;6.114;2023-09-18T07:40:59;4.87;;;2.10;;
12760;SDS011;6444;49.742;6.114;2023-09-18T07:43:25;5.47;;;2.58;;
12760;SDS011;6444;49.742;6.114;2023-09-18T07:45:53;4.30;;;2.10;;
12760;SDS011;6444;49.742;6.114;2023-09-18T07:48:20;4.60;;;2.30;;
12760;SDS011;6444;49.742;6.114;2023-09-18T07:50:46;4.03;;;2.15;;
12760;SDS011;6444;49.742;6.114;2023-09-18T07:53:13;6.10;;;2.37;;
12760;SDS011;6444;49.742;6.114;2023-09-18T07:55:39;3.50;;;2.35;;
12760;SDS011;6444;49.742;6.114;2023-09-18T07:58:06;4.50;;;2.50;;
12760;SDS011;6444;49.742;6.114;2023-09-18T08:00:33;4.55;;;2.50;;
12760;SDS011;6444;49.742;6.114;2023-09-18T08:03:00;4.50;;;2.37;;
12760;SDS011;6444;49.742;6.114;2023-09-18T08:05:27;5.43;;;2.67;;
12760;SDS011;6444;49.742;6.114;2023-09-18T08:07:54;5.72;;;2.67;;
12760;SDS011;6444;49.742;6.114;2023-09-18T08:10:20;6.47;;;2.97;;
12760;SDS011;6444;49.742;6.114;2023-09-18T08:12:47;5.25;;;3.00;;
12760;SDS011;6444;49.742;6.114;2023-09-18T08:15:14;6.40;;;3.00;;
12760;SDS011;6444;49.742;6.114;2023-09-18T08:17:41;5.90;;;3.70;;
12760;SDS011;6444;49.742;6.114;2023-09-18T08:20:07;5.18;;;3.33;;
12760;SDS011;6444;49.742;6.114;2023-09-18T08:22:34;8.02;;;2.70;;
12760;SDS011;6444;49.742;6.114;2023-09-18T08:25:01;5.03;;;2.50;;
12760;SDS011;6444;49.742;6.114;2023-09-18T08:27:27;6.60;;;2.50;;
12760;SDS011;6444;49.742;6.114;2023-09-18T08:29:54;5.55;;;2.60;;
12760;SDS011;6444;49.742;6.114;2023-09-18T08:32:21;5.05;;;1.90;;
12760;SDS011;6444;49.742;6.114;2023-09-18T08:34:48;4.68;;;2.35;;
12760;SDS011;6444;49.742;6.114;2023-09-18T08:37:15;2.50;;;1.87;;
12760;SDS011;6444;49.742;6.114;2023-09-18T08:39:41;6.45;;;2.20;;
12760;SDS011;6444;49.742;6.114;2023-09-18T08:42:08;3.78;;;2.08;;
12760;SDS011;6444;49.742;6.114;2023-09-18T08:44:35;4.40;;;1.92;;
12760;SDS011;6444;49.742;6.114;2023-09-18T08:47:02;4.93;;;1.55;;
12760;SDS011;6444;49.742;6.114;2023-09-18T08:49:29;3.25;;;1.58;;
12760;SDS011;6444;49.742;6.114;2023-09-18T08:51:55;5.30;;;1.73;;
12760;SDS011;6444;49.742;6.114;2023-09-18T08:54:22;3.35;;;2.28;;
12760;SDS011;6444;49.742;6.114;2023-09-18T08:56:53;4.03;;;2.00;;
12760;SDS011;6444;49.742;6.114;2023-09-18T08:59:20;2.15;;;1.80;;
12760;SDS011;6444;49.742;6.114;2023-09-18T09:01:48;4.65;;;2.12;;
12760;SDS011;6444;49.742;6.114;2023-09-18T09:04:13;2.90;;;1.87;;
12760;SDS011;6444;49.742;6.114;2023-09-18T09:06:40;3.42;;;2.47;;
12760;SDS011;6444;49.742;6.114;2023-09-18T09:09:07;7.40;;;2.00;;
12760;SDS011;6444;49.742;6.114;2023-09-18T09:11:36;4.60;;;1.83;;
12760;SDS011;6444;49.742;6.114;2023-09-18T09:14:11;3.90;;;2.05;;
12760;SDS011;6444;49.742;6.114;2023-09-18T09:16:49;4.35;;;2.12;;
12760;SDS011;6444;49.742;6.114;2023-09-18T09:19:18;4.50;;;2.53;;
12760;SDS011;6444;49.742;6.114;2023-09-18T09:21:46;7.75;;;2.17;;
12760;SDS011;6444;49.742;6.114;2023-09-18T09:24:12;4.22;;;1.98;;
12760;SDS011;6444;49.742;6.114;2023-09-18T09:26:56;3.78;;;1.77;;
12760;SDS011;6444;49.742;6.114;2023-09-18T09:29:20;4.78;;;1.83;;
12760;SDS011;6444;49.742;6.114;2023-09-18T09:31:41;3.30;;;2.42;;
12760;SDS011;6444;49.742;6.114;2023-09-18T09:34:07;3.37;;;1.90;;
12760;SDS011;6444;49.742;6.114;2023-09-18T09:36:36;2.37;;;1.92;;
12760;SDS011;6444;49.742;6.114;2023-09-18T09:39:05;3.05;;;2.10;;
12760;SDS011;6444;49.742;6.114;2023-09-18T09:41:32;3.55;;;1.92;;
12760;SDS011;6444;49.742;6.114;2023-09-18T09:44:04;4.85;;;2.12;;
12760;SDS011;6444;49.742;6.114;2023-09-18T09:46:35;2.37;;;1.80;;
12760;SDS011;6444;49.742;6.114;2023-09-18T09:49:08;3.00;;;1.60;;
12760;SDS011;6444;49.742;6.114;2023-09-18T09:51:38;3.10;;;1.50;;
12760;SDS011;6444;49.742;6.114;2023-09-18T09:54:14;2.92;;;1.25;;
12760;SDS011;6444;49.742;6.114;2023-09-18T09:56:44;3.92;;;1.60;;
12760;SDS011;6444;49.742;6.114;2023-09-18T09:59:14;3.42;;;1.75;;
12760;SDS011;6444;49.742;6.114;2023-09-18T10:01:40;2.45;;;1.73;;
12760;SDS011;6444;49.742;6.114;2023-09-18T10:04:09;4.28;;;1.90;;
12760;SDS011;6444;49.742;6.114;2023-09-18T10:06:36;4.28;;;1.70;;
12760;SDS011;6444;49.742;6.114;2023-09-18T10:09:02;2.95;;;1.70;;
12760;SDS011;6444;49.742;6.114;2023-09-18T10:11:29;2.25;;;1.50;;
12760;SDS011;6444;49.742;6.114;2023-09-18T10:14:06;3.45;;;1.60;;
12760;SDS011;6444;49.742;6.114;2023-09-18T10:16:34;5.12;;;1.60;;
12760;SDS011;6444;49.742;6.114;2023-09-18T10:19:14;3.70;;;2.05;;
12760;SDS011;6444;49.742;6.114;2023-09-18T10:21:55;3.47;;;1.77;;
12760;SDS011;6444;49.742;6.114;2023-09-18T10:24:21;4.75;;;1.98;;
12760;SDS011;6444;49.742;6.114;2023-09-18T10:26:56;4.07;;;1.70;;
12760;SDS011;6444;49.742;6.114;2023-09-18T10:29:25;2.45;;;1.80;;
12760;SDS011;6444;49.742;6.114;2023-09-18T10:32:05;3.30;;;1.55;;
12760;SDS011;6444;49.742;6.114;2023-09-18T10:34:46;3.10;;;1.60;;
12760;SDS011;6444;49.742;6.114;2023-09-18T10:37:18;5.00;;;1.70;;
12760;SDS011;6444;49.742;6.114;2023-09-18T10:39:42;3.62;;;1.87;;
12760;SDS011;6444;49.742;6.114;2023-09-18T10:42:18;2.90;;;1.52;;
12760;SDS011;6444;49.742;6.114;2023-09-18T10:44:38;3.53;;;1.58;;
12760;SDS011;6444;49.742;6.114;2023-09-18T10:47:10;4.87;;;1.83;;
12760;SDS011;6444;49.742;6.114;2023-09-18T10:49:34;2.92;;;1.70;;
12760;SDS011;6444;49.742;6.114;2023-09-18T10:52:01;2.90;;;1.80;;
12760;SDS011;6444;49.742;6.114;2023-09-18T10:54:28;1.87;;;1.52;;
12760;SDS011;6444;49.742;6.114;2023-09-18T10:56:55;4.05;;;1.98;;
12760;SDS011;6444;49.742;6.114;2023-09-18T10:59:21;4.45;;;1.90;;
12760;SDS011;6444;49.742;6.114;2023-09-18T11:01:51;2.53;;;1.77;;
12760;SDS011;6444;49.742;6.114;2023-09-18T11:04:19;4.80;;;1.52;;
12760;SDS011;6444;49.742;6.114;2023-09-18T11:09:22;1.77;;;1.50;;
12760;SDS011;6444;49.742;6.114;2023-09-18T11:14:43;5.95;;;1.62;;
12760;SDS011;6444;49.742;6.114;2023-09-18T11:20:03;2.45;;;1.50;;
12760;SDS011;6444;49.742;6.114;2023-09-18T11:22:29;2.05;;;1.45;;
12760;SDS011;6444;49.742;6.114;2023-09-18T11:25:25;2.92;;;1.48;;
12760;SDS011;6444;49.742;6.114;2023-09-18T11:27:25;1.95;;;1.60;;
12760;SDS011;6444;49.742;6.114;2023-09-18T11:29:52;3.35;;;1.40;;
12760;SDS011;6444;49.742;6.114;2023-09-18T11:32:37;2.47;;;1.60;;
12760;SDS011;6444;49.742;6.114;2023-09-18T11:34:45;5.85;;;2.10;;
12760;SDS011;6444;49.742;6.114;2023-09-18T11:37:21;3.17;;;1.37;;
12760;SDS011;6444;49.742;6.114;2023-09-18T11:39:48;2.00;;;1.30;;
12760;SDS011;6444;49.742;6.114;2023-09-18T11:42:16;4.07;;;1.80;;
12760;SDS011;6444;49.742;6.114;2023-09-18T11:44:43;4.55;;;2.20;;
12760;SDS011;6444;49.742;6.114;2023-09-18T11:47:17;5.50;;;1.60;;
12760;SDS011;6444;49.742;6.114;2023-09-18T11:49:40;3.10;;;1.80;;
12760;SDS011;6444;49.742;6.114;2023-09-18T11:52:06;2.60;;;1.40;;
12760;SDS011;6444;49.742;6.114;2023-09-18T11:54:33;4.15;;;1.70;;
12760;SDS011;6444;49.742;6.114;2023-09-18T11:57:03;3.22;;;1.70;;
12760;SDS011;6444;49.742;6.114;2023-09-18T11:59:39;3.08;;;1.80;;
12760;SDS011;6444;49.742;6.114;2023-09-18T12:02:05;3.60;;;1.80;;
12760;SDS011;6444;49.742;6.114;2023-09-18T12:04:34;4.15;;;1.42;;
12760;SDS011;6444;49.742;6.114;2023-09-18T12:07:01;3.33;;;1.90;;
12760;SDS011;6444;49.742;6.114;2023-09-18T12:09:27;3.62;;;1.50;;
12760;SDS011;6444;49.742;6.114;2023-09-18T12:11:54;3.40;;;1.50;;
12760;SDS011;6444;49.742;6.114;2023-09-18T12:14:20;2.87;;;1.83;;
12760;SDS011;6444;49.742;6.114;2023-09-18T12:16:47;3.37;;;1.80;;
12760;SDS011;6444;49.742;6.114;2023-09-18T12:19:17;3.95;;;2.00;;
12760;SDS011;6444;49.742;6.114;2023-09-18T12:21:45;3.33;;;1.58;;
12760;SDS011;6444;49.742;6.114;2023-09-18T12:24:13;2.47;;;1.60;;
12760;SDS011;6444;49.742;6.114;2023-09-18T12:26:39;3.87;;;1.40;;
12760;SDS011;6444;49.742;6.114;2023-09-18T12:29:06;2.87;;;1.55;;
12760;SDS011;6444;49.742;6.114;2023-09-18T12:31:32;4.32;;;1.73;;
12760;SDS011;6444;49.742;6.114;2023-09-18T12:33:59;5.25;;;1.77;;
12760;SDS011;6444;49.742;6.114;2023-09-18T12:36:26;6.82;;;1.65;;
12760;SDS011;6444;49.742;6.114;2023-09-18T12:38:55;3.55;;;1.90;;
12760;SDS011;6444;49.742;6.114;2023-09-18T12:41:23;3.53;;;1.70;;
12760;SDS011;6444;49.742;6.114;2023-09-18T12:43:49;3.53;;;1.62;;
12760;SDS011;6444;49.742;6.114;2023-09-18T12:46:16;3.65;;;1.65;;
12760;SDS011;6444;49.742;6.114;2023-09-18T12:48:42;4.25;;;1.55;;
12760;SDS011;6444;49.742;6.114;2023-09-18T12:51:09;3.28;;;1.48;;
12760;SDS011;6444;49.742;6.114;2023-09-18T12:53:36;2.12;;;1.70;;
12760;SDS011;6444;49.742;6.114;2023-09-18T12:56:12;3.33;;;1.62;;
12760;SDS011;6444;49.742;6.114;2023-09-18T12:58:39;2.22;;;1.40;;
12760;SDS011;6444;49.742;6.114;2023-09-18T13:01:09;2.60;;;1.50;;
12760;SDS011;6444;49.742;6.114;2023-09-18T13:03:35;1.60;;;1.40;;
12760;SDS011;6444;49.742;6.114;2023-09-18T13:06:08;3.12;;;1.60;;
12760;SDS011;6444;49.742;6.114;2023-09-18T13:08:34;1.77;;;1.40;;
12760;SDS011;6444;49.742;6.114;2023-09-18T13:11:01;2.08;;;1.52;;
12760;SDS011;6444;49.742;6.114;2023-09-18T13:13:30;3.53;;;1.52;;
12760;SDS011;6444;49.742;6.114;2023-09-18T13:15:57;2.33;;;1.30;;
12760;SDS011;6444;49.742;6.114;2023-09-18T13:18:24;3.70;;;1.50;;
12760;SDS011;6444;49.742;6.114;2023-09-18T13:20:51;2.80;;;1.60;;
12760;SDS011;6444;49.742;6.114;2023-09-18T13:23:17;2.30;;;1.55;;
12760;SDS011;6444;49.742;6.114;2023-09-18T13:25:44;3.65;;;1.60;;
12760;SDS011;6444;49.742;6.114;2023-09-18T13:28:11;3.95;;;1.83;;
12760;SDS011;6444;49.742;6.114;2023-09-18T13:30:38;1.35;;;1.23;;
12760;SDS011;6444;49.742;6.114;2023-09-18T13:33:11;2.85;;;1.48;;
12760;SDS011;6444;49.742;6.114;2023-09-18T13:35:38;3.97;;;1.98;;
12760;SDS011;6444;49.742;6.114;2023-09-18T13:38:04;3.05;;;1.83;;
12760;SDS011;6444;49.742;6.114;2023-09-18T13:40:44;2.87;;;1.58;;
12760;SDS011;6444;49.742;6.114;2023-09-18T13:43:09;3.42;;;1.77;;
12760;SDS011;6444;49.742;6.114;2023-09-18T13:45:36;4.50;;;1.83;;
12760;SDS011;6444;49.742;6.114;2023-09-18T13:48:03;5.10;;;2.37;;
12760;SDS011;6444;49.742;6.114;2023-09-18T13:50:29;2.25;;;1.60;;
12760;SDS011;6444;49.742;6.114;2023-09-18T13:52:56;2.47;;;1.77;;
12760;SDS011;6444;49.742;6.114;2023-09-18T13:55:22;2.22;;;1.55;;
12760;SDS011;6444;49.742;6.114;2023-09-18T13:57:49;2.67;;;1.67;;
12760;SDS011;6444;49.742;6.114;2023-09-18T14:00:17;5.87;;;2.05;;
12760;SDS011;6444;49.742;6.114;2023-09-18T14:02:43;3.20;;;1.87;;
12760;SDS011;6444;49.742;6.114;2023-09-18T14:05:10;2.95;;;1.87;;
12760;SDS011;6444;49.742;6.114;2023-09-18T14:07:37;3.80;;;1.80;;
12760;SDS011;6444;49.742;6.114;2023-09-18T14:10:09;3.75;;;1.90;;
12760;SDS011;6444;49.742;6.114;2023-09-18T14:12:36;3.95;;;2.10;;
12760;SDS011;6444;49.742;6.114;2023-09-18T14:15:04;3.20;;;1.67;;
12760;SDS011;6444;49.742;6.114;2023-09-18T14:17:32;3.12;;;1.98;;
12760;SDS011;6444;49.742;6.114;2023-09-18T14:19:59;2.55;;;1.52;;
12760;SDS011;6444;49.742;6.114;2023-09-18T14:22:26;3.80;;;2.55;;
12760;SDS011;6444;49.742;6.114;2023-09-18T14:24:52;4.00;;;1.70;;
12760;SDS011;6444;49.742;6.114;2023-09-18T14:27:20;4.12;;;1.83;;
12760;SDS011;6444;49.742;6.114;2023-09-18T14:29:46;3.87;;;1.62;;
12760;SDS011;6444;49.742;6.114;2023-09-18T14:32:13;4.55;;;1.87;;
12760;SDS011;6444;49.742;6.114;2023-09-18T14:34:40;2.10;;;1.45;;
12760;SDS011;6444;49.742;6.114;2023-09-18T14:37:07;3.25;;;1.60;;
12760;SDS011;6444;49.742;6.114;2023-09-18T14:39:33;2.37;;;1.45;;
12760;SDS011;6444;49.742;6.114;2023-09-18T14:42:00;6.37;;;1.70;;
12760;SDS011;6444;49.742;6.114;2023-09-18T14:44:27;2.22;;;1.40;;
12760;SDS011;6444;49.742;6.114;2023-09-18T14:46:53;2.10;;;1.87;;
12760;SDS011;6444;49.742;6.114;2023-09-18T14:49:20;4.80;;;1.80;;
12760;SDS011;6444;49.742;6.114;2023-09-18T14:51:47;3.10;;;1.60;;
12760;SDS011;6444;49.742;6.114;2023-09-18T14:54:14;3.95;;;1.58;;
12760;SDS011;6444;49.742;6.114;2023-09-18T14:56:41;2.42;;;1.40;;
12760;SDS011;6444;49.742;6.114;2023-09-18T14:59:07;4.80;;;1.90;;
12760;SDS011;6444;49.742;6.114;2023-09-18T15:01:34;2.83;;;1.42;;
12760;SDS011;6444;49.742;6.114;2023-09-18T15:04:00;4.70;;;1.60;;
12760;SDS011;6444;49.742;6.114;2023-09-18T15:06:27;5.22;;;1.52;;
12760;SDS011;6444;49.742;6.114;2023-09-18T15:08:54;5.62;;;1.60;;